Time;durP1;ratioP1;P1;durP2;ratioP2;P2;SDS_P1;SDS_P2;PMS_P1;PMS_P2;Temp;Humidity;BMP_temperature;BMP_pressure;BME280_temperature;BME280_humidity;BME280_pressure;Samples;Min_cycle;Max_cycle;Signal;HPM_P1;HPM_P2
2022/09/02 00:00:05;;;;;;;;;;;17.50;99.90;;;;;;5035566;28;19922;-66
2022/09/02 00:02:34;;;;;;;;;;;17.50;99.90;;;;;;5009751;28;19921;-68
2022/09/02 00:05:01;;;;;;;;;;;17.50;99.90;;;;;;5005682;28;20012;-66
2022/09/02 00:07:28;;;;;;;;;;;17.50;99.90;;;;;;5013286;28;19928;-67
2022/09/02 00:09:55;;;;;;;;;;;17.50;99.90;;;;;;5022914;28;19929;-68
2022/09/02 00:12:22;;;;;;;;;;;17.50;99.90;;;;;;5012780;28;19929;-68
2022/09/02 00:14:49;;;;;;;;;;;17.50;99.90;;;;;;5012689;28;19921;-68
2022/09/02 00:17:16;;;;;;;;;;;17.50;99.90;;;;;;5000711;28;19975;-68
2022/09/02 00:19:42;;;;;;;;;;;17.50;99.90;;;;;;5020139;28;20389;-68
2022/09/02 00:22:09;;;;;;;;;;;17.50;99.90;;;;;;5004890;28;20361;-68
2022/09/02 00:24:37;;;;;;;;;;;17.60;99.90;;;;;;5011241;28;20012;-68
2022/09/02 00:27:03;;;;;;;;;;;17.50;99.90;;;;;;5005390;28;19921;-68
2022/09/02 00:29:30;;;;;;;;;;;17.50;99.90;;;;;;5011354;28;19971;-67
2022/09/02 00:31:58;;;;;;;;;;;17.50;99.90;;;;;;5016121;28;19961;-68
2022/09/02 00:34:25;;;;;;;;;;;17.50;99.90;;;;;;5011859;28;20331;-68
2022/09/02 00:36:52;;;;;;;;;;;17.50;99.90;;;;;;5014378;28;19922;-73
2022/09/02 00:39:19;;;;;;;;;;;17.50;99.90;;;;;;5030764;28;19931;-68
2022/09/02 00:41:46;;;;;;;;;;;17.50;99.90;;;;;;5022366;28;19921;-68
2022/09/02 00:44:13;;;;;;;;;;;17.50;99.90;;;;;;5029948;28;19921;-69
2022/09/02 00:46:40;;;;;;;;;;;17.50;99.90;;;;;;5032029;28;19925;-67
2022/09/02 00:49:07;;;;;;;;;;;17.50;99.90;;;;;;5025256;28;20016;-70
2022/09/02 00:51:58;;;;;;;;;;;17.60;99.90;;;;;;5024380;28;19921;-68
2022/09/02 00:54:25;;;;;;;;;;;17.60;99.90;;;;;;5015534;28;19921;-68
2022/09/02 00:56:52;;;;;;;;;;;17.60;99.90;;;;;;5020570;28;20398;-66
2022/09/02 00:59:22;;;;;;;;;;;17.60;99.90;;;;;;5013163;28;20024;-67
2022/09/02 01:01:49;;;;;;;;;;;17.60;99.90;;;;;;5018830;28;19921;-68
2022/09/02 01:04:16;;;;;;;;;;;17.60;99.90;;;;;;5019681;28;20465;-68
2022/09/02 01:06:43;;;;;;;;;;;17.60;99.90;;;;;;5025021;28;19927;-67
2022/09/02 01:09:11;;;;;;;;;;;17.60;99.90;;;;;;5029967;28;19930;-68
2022/09/02 01:11:39;;;;;;;;;;;17.60;99.90;;;;;;5016032;28;19955;-69
2022/09/02 01:14:06;;;;;;;;;;;17.60;99.90;;;;;;5029166;28;20000;-68
2022/09/02 01:16:35;;;;;;;;;;;17.60;99.90;;;;;;5021638;28;19928;-68
2022/09/02 01:19:03;;;;;;;;;;;17.60;99.90;;;;;;5014475;28;20283;-70
2022/09/02 01:21:30;;;;;;;;;;;17.60;99.90;;;;;;5031874;28;19921;-69
2022/09/02 01:23:57;;;;;;;;;;;17.50;99.90;;;;;;5029783;28;20164;-68
2022/09/02 01:26:24;;;;;;;;;;;17.60;99.90;;;;;;5017628;28;19921;-68
2022/09/02 01:28:51;;;;;;;;;;;17.50;99.90;;;;;;5017751;28;19997;-68
2022/09/02 01:31:18;;;;;;;;;;;17.50;99.90;;;;;;5014338;28;19992;-67
2022/09/02 01:33:45;;;;;;;;;;;17.50;99.90;;;;;;5011160;28;19935;-69
2022/09/02 01:36:12;;;;;;;;;;;17.50;99.90;;;;;;5029671;28;19925;-69
2022/09/02 01:38:39;;;;;;;;;;;17.40;99.90;;;;;;5011740;28;19922;-70
2022/09/02 01:41:06;;;;;;;;;;;17.40;99.90;;;;;;5016058;28;19940;-70
2022/09/02 01:43:33;;;;;;;;;;;17.40;99.90;;;;;;5026516;28;19922;-70
2022/09/02 01:46:00;;;;;;;;;;;17.40;99.90;;;;;;5012434;28;19949;-68
2022/09/02 01:48:26;;;;;;;;;;;17.30;99.90;;;;;;5012089;28;20008;-70
2022/09/02 01:50:55;;;;;;;;;;;17.30;99.90;;;;;;5016901;28;19921;-70
2022/09/02 01:53:22;;;;;;;;;;;17.30;99.90;;;;;;5023195;28;19921;-69
2022/09/02 01:55:49;;;;;;;;;;;17.30;99.90;;;;;;4995154;28;19925;-70
2022/09/02 01:58:15;;;;;;;;;;;17.20;99.90;;;;;;5011442;28;19921;-69
2022/09/02 02:00:42;;;;;;;;;;;17.20;99.90;;;;;;5013204;28;19933;-68
2022/09/02 02:03:09;;;;;;;;;;;17.30;99.90;;;;;;5028897;28;20014;-69
2022/09/02 02:05:36;;;;;;;;;;;17.30;99.90;;;;;;5027721;28;19921;-68
2022/09/02 02:08:03;;;;;;;;;;;17.20;99.90;;;;;;5014317;28;19921;-68
2022/09/02 02:10:30;;;;;;;;;;;17.30;99.90;;;;;;5010715;28;19921;-68
2022/09/02 02:12:58;;;;;;;;;;;17.30;99.90;;;;;;5012749;28;19922;-69
2022/09/02 02:15:25;;;;;;;;;;;17.30;99.90;;;;;;5011376;28;19921;-69
2022/09/02 02:17:50;;;;;;;;;;;17.30;99.90;;;;;;5017123;28;20054;-69
2022/09/02 02:20:17;;;;;;;;;;;17.30;99.90;;;;;;4993830;28;19929;-69
2022/09/02 02:22:44;;;;;;;;;;;17.30;99.90;;;;;;5012498;28;20267;-69
2022/09/02 02:25:13;;;;;;;;;;;17.30;99.90;;;;;;5011718;28;19932;-67
2022/09/02 02:27:40;;;;;;;;;;;17.30;99.90;;;;;;5013336;28;19921;-69
2022/09/02 02:30:10;;;;;;;;;;;17.30;99.90;;;;;;5012910;28;19933;-69
2022/09/02 02:32:36;;;;;;;;;;;17.30;99.90;;;;;;5022930;28;19928;-69
2022/09/02 02:35:04;;;;;;;;;;;17.30;99.90;;;;;;5014756;28;19928;-69
2022/09/02 02:37:31;;;;;;;;;;;17.20;99.90;;;;;;5042442;28;19951;-66
2022/09/02 02:39:58;;;;;;;;;;;17.20;99.90;;;;;;5028004;28;19928;-69
2022/09/02 02:42:24;;;;;;;;;;;17.20;99.90;;;;;;5018233;28;19928;-69
2022/09/02 02:44:51;;;;;;;;;;;17.20;99.90;;;;;;5028899;28;20355;-68
2022/09/02 02:47:18;;;;;;;;;;;17.30;99.90;;;;;;5012464;28;19932;-68
2022/09/02 02:49:45;;;;;;;;;;;17.20;99.90;;;;;;5015336;28;19921;-68
2022/09/02 02:52:12;;;;;;;;;;;17.30;99.90;;;;;;5023871;28;19921;-69
2022/09/02 02:54:39;;;;;;;;;;;17.30;99.90;;;;;;5012532;28;20307;-69
2022/09/02 02:57:05;;;;;;;;;;;17.20;99.90;;;;;;5025095;28;19975;-69
2022/09/02 02:59:32;;;;;;;;;;;17.30;99.90;;;;;;5013453;28;19922;-69
2022/09/02 03:01:59;;;;;;;;;;;17.30;99.90;;;;;;5029740;28;19921;-69
2022/09/02 03:04:26;;;;;;;;;;;17.30;99.90;;;;;;5023015;28;19929;-69
2022/09/02 03:06:53;;;;;;;;;;;17.30;99.90;;;;;;5015135;28;19928;-69
2022/09/02 03:09:20;;;;;;;;;;;17.30;99.90;;;;;;5026427;28;20256;-69
2022/09/02 03:11:47;;;;;;;;;;;17.30;99.90;;;;;;5001972;28;19922;-69
2022/09/02 03:14:14;;;;;;;;;;;17.30;99.90;;;;;;5014047;28;19928;-69
2022/09/02 03:16:40;;;;;;;;;;;17.30;99.90;;;;;;5016678;28;19979;-69
2022/09/02 03:19:07;;;;;;;;;;;17.30;99.90;;;;;;5023119;28;19928;-69
2022/09/02 03:21:34;;;;;;;;;;;17.30;99.90;;;;;;5014843;28;19921;-69
2022/09/02 03:24:05;;;;;;;;;;;17.30;99.90;;;;;;5016541;28;19968;-69
2022/09/02 03:26:31;;;;;;;;;;;17.30;99.90;;;;;;5025526;28;19925;-68
2022/09/02 03:28:58;;;;;;;;;;;17.30;99.90;;;;;;5021035;28;19925;-69
2022/09/02 03:31:25;;;;;;;;;;;17.30;99.90;;;;;;5016236;28;19928;-69
2022/09/02 03:33:52;;;;;;;;;;;17.20;99.90;;;;;;5017964;28;19929;-68
2022/09/02 03:36:23;;;;;;;;;;;17.30;99.90;;;;;;5013347;28;19926;-69
2022/09/02 03:38:50;;;;;;;;;;;17.30;99.90;;;;;;5016106;28;20032;-66
2022/09/02 03:41:18;;;;;;;;;;;17.30;99.90;;;;;;5015755;28;19921;-69
2022/09/02 03:43:44;;;;;;;;;;;17.30;99.90;;;;;;5014369;28;19921;-68
2022/09/02 03:46:12;;;;;;;;;;;17.30;99.90;;;;;;5017416;28;19936;-69
2022/09/02 03:48:39;;;;;;;;;;;17.30;99.90;;;;;;5017672;28;19920;-69
2022/09/02 03:51:06;;;;;;;;;;;17.20;99.90;;;;;;5015805;28;19922;-70
2022/09/02 03:53:33;;;;;;;;;;;17.20;99.90;;;;;;5032760;28;19971;-69
2022/09/02 03:56:04;;;;;;;;;;;17.20;99.90;;;;;;5031305;28;19928;-69
2022/09/02 03:58:31;;;;;;;;;;;17.20;99.90;;;;;;5019780;28;19925;-69
2022/09/02 04:00:58;;;;;;;;;;;17.20;99.90;;;;;;5013632;28;19929;-69
2022/09/02 04:03:26;;;;;;;;;;;17.20;99.90;;;;;;5015467;28;19921;-69
2022/09/02 04:05:53;;;;;;;;;;;17.20;99.90;;;;;;5033529;28;19921;-67
2022/09/02 04:08:20;;;;;;;;;;;17.20;99.90;;;;;;5014378;28;19921;-69
2022/09/02 04:10:47;;;;;;;;;;;17.20;99.90;;;;;;5013208;28;19949;-69
2022/09/02 04:13:14;;;;;;;;;;;17.20;99.90;;;;;;5014991;28;19922;-68
2022/09/02 04:15:46;;;;;;;;;;;17.20;99.90;;;;;;5022986;28;20011;-69
2022/09/02 04:18:14;;;;;;;;;;;17.20;99.90;;;;;;5014239;28;19921;-69
2022/09/02 04:20:42;;;;;;;;;;;17.30;99.90;;;;;;5026466;28;19921;-69
2022/09/02 04:23:08;;;;;;;;;;;17.20;99.90;;;;;;5014814;28;19948;-67
2022/09/02 04:25:39;;;;;;;;;;;17.20;99.90;;;;;;5016375;28;19921;-69
2022/09/02 04:28:06;;;;;;;;;;;17.20;99.90;;;;;;5012992;28;20257;-68
2022/09/02 04:30:33;;;;;;;;;;;17.20;99.90;;;;;;5013581;28;19921;-69
2022/09/02 04:33:00;;;;;;;;;;;17.20;99.90;;;;;;5015783;28;19921;-67
2022/09/02 04:35:26;;;;;;;;;;;17.20;99.90;;;;;;5014945;28;19921;-69
2022/09/02 04:37:53;;;;;;;;;;;17.20;99.90;;;;;;5022419;28;19925;-69
2022/09/02 04:40:20;;;;;;;;;;;17.20;99.90;;;;;;5022111;28;19928;-69
2022/09/02 04:42:47;;;;;;;;;;;17.20;99.90;;;;;;5014144;28;19991;-69
2022/09/02 04:45:13;;;;;;;;;;;17.20;99.90;;;;;;5014636;28;19933;-69
2022/09/02 04:47:40;;;;;;;;;;;17.20;99.90;;;;;;5015160;28;19926;-69
2022/09/02 04:50:10;;;;;;;;;;;17.20;99.90;;;;;;5015816;28;20321;-66
2022/09/02 04:52:37;;;;;;;;;;;17.20;99.90;;;;;;5021647;28;20254;-69
2022/09/02 04:55:05;;;;;;;;;;;17.20;99.90;;;;;;5015689;28;19921;-69
2022/09/02 04:57:32;;;;;;;;;;;17.20;99.90;;;;;;5012117;28;19929;-68
2022/09/02 05:00:00;;;;;;;;;;;17.20;99.90;;;;;;5014773;28;19928;-69
2022/09/02 05:02:27;;;;;;;;;;;17.20;99.90;;;;;;5031942;28;19925;-69
2022/09/02 05:04:54;;;;;;;;;;;17.20;99.90;;;;;;5017300;28;19921;-68
2022/09/02 05:07:21;;;;;;;;;;;17.10;99.90;;;;;;5013449;28;19928;-69
2022/09/02 05:09:48;;;;;;;;;;;17.10;99.90;;;;;;5017428;28;20386;-68
2022/09/02 05:12:17;;;;;;;;;;;17.10;99.90;;;;;;5011889;28;19932;-68
2022/09/02 05:14:44;;;;;;;;;;;17.10;99.90;;;;;;5016020;28;19921;-69
2022/09/02 05:17:10;;;;;;;;;;;17.10;99.90;;;;;;5029269;28;19932;-68
2022/09/02 05:19:37;;;;;;;;;;;17.00;99.90;;;;;;5030724;28;19921;-68
2022/09/02 05:22:04;;;;;;;;;;;17.00;99.90;;;;;;5022535;28;19928;-68
2022/09/02 05:24:31;;;;;;;;;;;17.00;99.90;;;;;;5016521;28;19928;-68
2022/09/02 05:26:58;;;;;;;;;;;17.00;99.90;;;;;;5013863;28;19929;-68
2022/09/02 05:29:25;;;;;;;;;;;17.00;99.90;;;;;;5014380;28;19925;-69
2022/09/02 05:31:52;;;;;;;;;;;17.00;99.90;;;;;;5018501;28;19921;-68
2022/09/02 05:34:19;;;;;;;;;;;17.00;99.90;;;;;;5021541;28;19922;-68
2022/09/02 05:36:45;;;;;;;;;;;17.00;99.90;;;;;;5025712;28;19921;-68
2022/09/02 05:39:12;;;;;;;;;;;17.00;99.90;;;;;;5029257;28;19933;-68
2022/09/02 05:41:39;;;;;;;;;;;17.00;99.90;;;;;;5017606;28;19925;-68
2022/09/02 05:44:06;;;;;;;;;;;17.00;99.90;;;;;;5012446;28;19940;-68
2022/09/02 05:46:33;;;;;;;;;;;17.10;99.90;;;;;;5014578;28;20033;-68
2022/09/02 05:49:11;;;;;;;;;;;17.10;99.90;;;;;;5017785;28;20288;-68
2022/09/02 05:51:45;;;;;;;;;;;17.10;99.90;;;;;;5012363;28;20309;-69
2022/09/02 05:54:19;;;;;;;;;;;17.10;99.90;;;;;;5027126;28;19928;-69
2022/09/02 05:56:47;;;;;;;;;;;17.20;99.90;;;;;;5017948;28;19928;-68
2022/09/02 05:59:14;;;;;;;;;;;17.20;99.90;;;;;;5018332;28;19921;-69
2022/09/02 06:01:41;;;;;;;;;;;17.20;99.90;;;;;;5029316;28;19927;-69
2022/09/02 06:04:08;;;;;;;;;;;17.20;99.90;;;;;;5020246;28;19944;-68
2022/09/02 06:06:37;;;;;;;;;;;17.30;99.90;;;;;;5011192;28;19928;-68
2022/09/02 06:09:06;;;;;;;;;;;17.30;99.90;;;;;;5011275;28;20293;-68
2022/09/02 06:11:34;;;;;;;;;;;17.30;99.90;;;;;;5013379;28;19921;-68
2022/09/02 06:14:00;;;;;;;;;;;17.40;99.90;;;;;;5017158;28;20391;-68
2022/09/02 06:16:27;;;;;;;;;;;17.40;99.90;;;;;;5020960;28;20364;-68
2022/09/02 06:18:54;;;;;;;;;;;17.40;99.90;;;;;;5020832;28;19948;-68
2022/09/02 06:21:21;;;;;;;;;;;17.40;99.90;;;;;;5022127;28;19975;-69
2022/09/02 06:23:48;;;;;;;;;;;17.40;99.90;;;;;;5014964;28;20273;-67
2022/09/02 06:26:15;;;;;;;;;;;17.40;99.90;;;;;;5012304;28;19932;-61
2022/09/02 06:28:42;;;;;;;;;;;17.40;99.90;;;;;;5020611;28;19932;-62
2022/09/02 06:31:13;;;;;;;;;;;17.40;99.90;;;;;;5023583;28;19929;-62
2022/09/02 06:33:41;;;;;;;;;;;17.40;99.90;;;;;;5025323;28;19968;-64
2022/09/02 06:36:09;;;;;;;;;;;17.40;99.90;;;;;;5030407;28;19928;-65
2022/09/02 06:38:37;;;;;;;;;;;17.50;99.90;;;;;;5018647;28;19948;-64
2022/09/02 06:41:09;;;;;;;;;;;17.50;99.90;;;;;;5015034;28;19964;-65
2022/09/02 06:43:36;;;;;;;;;;;17.60;99.90;;;;;;5016094;28;19928;-63
2022/09/02 06:46:12;;;;;;;;;;;17.60;99.90;;;;;;5016611;28;20056;-62
2022/09/02 06:48:39;;;;;;;;;;;17.70;99.90;;;;;;5005214;28;19971;-64
2022/09/02 06:51:06;;;;;;;;;;;17.80;99.90;;;;;;5019066;28;19928;-64
2022/09/02 06:53:32;;;;;;;;;;;17.90;99.90;;;;;;5024739;28;19932;-62
2022/09/02 06:55:59;;;;;;;;;;;17.90;99.90;;;;;;5015766;28;19926;-62
2022/09/02 06:58:26;;;;;;;;;;;18.00;99.90;;;;;;5022849;28;19929;-65
2022/09/02 07:00:53;;;;;;;;;;;18.10;99.90;;;;;;5038767;28;19925;-62
2022/09/02 07:06:09;;;;;;;;;;;18.20;99.90;;;;;;5034859;28;19928;-62
2022/09/02 07:08:37;;;;;;;;;;;18.20;99.90;;;;;;5017260;28;19951;-62
2022/09/02 07:11:04;;;;;;;;;;;18.30;99.90;;;;;;5014021;28;20372;-62
2022/09/02 07:13:31;;;;;;;;;;;18.30;99.90;;;;;;5015021;28;19925;-63
2022/09/02 07:15:58;;;;;;;;;;;18.40;99.90;;;;;;5013540;28;19929;-62
2022/09/02 07:18:24;;;;;;;;;;;18.30;99.90;;;;;;5024762;28;20005;-62
2022/09/02 07:20:52;;;;;;;;;;;18.40;99.90;;;;;;5020768;28;19921;-61
2022/09/02 07:23:19;;;;;;;;;;;18.40;99.90;;;;;;5028675;28;19933;-61
2022/09/02 07:25:46;;;;;;;;;;;18.50;99.90;;;;;;5014842;28;19928;-62
2022/09/02 07:28:13;;;;;;;;;;;18.50;99.90;;;;;;5019995;28;19920;-61
2022/09/02 07:30:40;;;;;;;;;;;18.50;99.90;;;;;;5034911;28;19924;-61
2022/09/02 07:33:08;;;;;;;;;;;18.50;99.90;;;;;;5032147;28;19920;-61
2022/09/02 07:35:36;;;;;;;;;;;18.60;99.90;;;;;;5013983;28;19922;-61
2022/09/02 07:38:03;;;;;;;;;;;18.60;99.90;;;;;;5013685;28;19922;-62
2022/09/02 07:40:30;;;;;;;;;;;18.70;99.90;;;;;;5014633;28;20016;-62
2022/09/02 07:42:56;;;;;;;;;;;18.80;99.90;;;;;;5029918;28;19964;-61
2022/09/02 07:45:23;;;;;;;;;;;18.80;99.90;;;;;;5031799;28;19928;-62
2022/09/02 07:47:50;;;;;;;;;;;18.80;99.90;;;;;;5014089;28;19925;-62
2022/09/02 07:50:17;;;;;;;;;;;18.80;99.90;;;;;;5021289;28;19944;-65
2022/09/02 07:52:48;;;;;;;;;;;18.90;99.90;;;;;;5026923;28;19921;-65
2022/09/02 07:55:15;;;;;;;;;;;19.00;99.90;;;;;;5016860;28;19921;-65
2022/09/02 07:57:42;;;;;;;;;;;19.00;99.90;;;;;;5018829;28;19927;-64
2022/09/02 08:00:11;;;;;;;;;;;19.00;99.90;;;;;;5029874;28;19932;-65
2022/09/02 08:02:37;;;;;;;;;;;19.10;99.90;;;;;;5016222;28;19925;-65
2022/09/02 08:05:04;;;;;;;;;;;19.20;99.90;;;;;;5016362;28;19980;-64
2022/09/02 08:07:31;;;;;;;;;;;19.30;99.90;;;;;;5020300;28;19943;-66
2022/09/02 08:09:59;;;;;;;;;;;19.30;99.90;;;;;;5022062;28;19921;-65
2022/09/02 08:12:27;;;;;;;;;;;19.40;99.90;;;;;;5022092;28;19928;-66
2022/09/02 08:14:57;;;;;;;;;;;19.50;99.90;;;;;;5026913;28;19927;-67
2022/09/02 08:17:24;;;;;;;;;;;19.60;99.90;;;;;;5023471;28;19920;-67
2022/09/02 08:19:51;;;;;;;;;;;19.70;99.90;;;;;;5032263;28;19949;-68
2022/09/02 08:22:18;;;;;;;;;;;19.70;99.90;;;;;;5029951;28;19928;-68
2022/09/02 08:24:44;;;;;;;;;;;19.80;99.90;;;;;;5032984;28;19921;-68
2022/09/02 08:27:11;;;;;;;;;;;19.90;99.90;;;;;;5015897;28;19928;-68
2022/09/02 08:29:38;;;;;;;;;;;20.00;99.90;;;;;;5013677;28;20007;-66
2022/09/02 08:32:05;;;;;;;;;;;20.00;99.90;;;;;;5013634;28;19933;-69
2022/09/02 08:34:32;;;;;;;;;;;20.10;99.90;;;;;;5013627;28;19932;-68
2022/09/02 08:36:59;;;;;;;;;;;20.10;99.90;;;;;;5012837;28;19921;-68
2022/09/02 08:39:26;;;;;;;;;;;20.10;99.90;;;;;;5013987;28;19921;-68
2022/09/02 08:41:57;;;;;;;;;;;20.20;99.90;;;;;;5029045;28;19921;-68
2022/09/02 08:44:29;;;;;;;;;;;20.30;99.90;;;;;;5028269;28;20289;-67
2022/09/02 08:46:58;;;;;;;;;;;20.40;99.90;;;;;;5028564;28;19921;-69
2022/09/02 08:49:26;;;;;;;;;;;20.50;99.90;;;;;;5028588;28;20353;-68
2022/09/02 08:51:55;;;;;;;;;;;20.50;99.90;;;;;;5014052;28;19927;-68
2022/09/02 08:54:38;;;;;;;;;;;20.50;99.90;;;;;;5021612;28;19936;-68
2022/09/02 08:57:06;;;;;;;;;;;20.50;99.90;;;;;;5053747;28;20364;-68
2022/09/02 08:59:34;;;;;;;;;;;20.60;99.90;;;;;;5027495;28;19988;-68
2022/09/02 09:02:03;;;;;;;;;;;20.60;99.90;;;;;;5028305;28;19929;-68
2022/09/02 09:04:46;;;;;;;;;;;20.70;99.90;;;;;;5022499;28;19925;-68
2022/09/02 09:07:24;;;;;;;;;;;20.70;99.90;;;;;;5064822;28;20028;-68
2022/09/02 09:10:18;;;;;;;;;;;20.70;99.90;;;;;;5064584;28;19931;-68
2022/09/02 09:12:49;;;;;;;;;;;20.70;99.90;;;;;;5019988;28;20269;-68
2022/09/02 09:15:16;;;;;;;;;;;20.80;99.90;;;;;;5031696;28;19921;-68
2022/09/02 09:17:44;;;;;;;;;;;20.90;99.90;;;;;;5032622;28;20245;-68
2022/09/02 09:20:21;;;;;;;;;;;20.90;99.90;;;;;;5031249;28;19940;-68
2022/09/02 09:22:48;;;;;;;;;;;21.00;99.90;;;;;;5031639;28;19932;-67
2022/09/02 09:25:15;;;;;;;;;;;21.10;99.90;;;;;;5031450;28;19931;-68
2022/09/02 09:27:44;;;;;;;;;;;21.20;99.90;;;;;;5019866;28;19932;-68
2022/09/02 09:30:12;;;;;;;;;;;21.20;99.90;;;;;;5012750;28;19928;-68
2022/09/02 09:32:45;;;;;;;;;;;21.30;99.90;;;;;;5012667;28;19925;-68
2022/09/02 09:35:12;;;;;;;;;;;21.50;99.90;;;;;;5027296;28;20313;-68
2022/09/02 09:37:44;;;;;;;;;;;21.60;99.90;;;;;;5027842;28;19928;-68
2022/09/02 09:40:20;;;;;;;;;;;21.70;99.90;;;;;;5027333;28;20391;-68
2022/09/02 09:42:48;;;;;;;;;;;21.70;99.90;;;;;;5013135;28;19972;-68
2022/09/02 09:45:34;;;;;;;;;;;21.80;99.90;;;;;;5012817;28;20277;-69
2022/09/02 09:48:10;;;;;;;;;;;21.80;99.90;;;;;;5012481;28;19943;-68
2022/09/02 09:50:38;;;;;;;;;;;21.90;99.90;;;;;;5012224;28;19975;-68
2022/09/02 09:53:18;;;;;;;;;;;22.00;99.90;;;;;;5012905;28;19932;-69
2022/09/02 09:55:54;;;;;;;;;;;22.20;99.90;;;;;;5029412;28;19928;-69
2022/09/02 09:58:22;;;;;;;;;;;22.30;99.90;;;;;;5014843;28;19944;-69
2022/09/02 10:00:51;;;;;;;;;;;22.30;99.90;;;;;;5010048;28;19921;-68
2022/09/02 10:03:22;;;;;;;;;;;22.40;99.90;;;;;;5014902;28;19921;-68
2022/09/02 10:05:52;;;;;;;;;;;22.40;99.90;;;;;;5027035;28;19921;-68
2022/09/02 10:08:21;;;;;;;;;;;22.50;99.90;;;;;;5011352;28;19925;-68
2022/09/02 10:11:05;;;;;;;;;;;22.50;99.90;;;;;;5011874;28;20228;-67
2022/09/02 10:13:32;;;;;;;;;;;22.50;99.90;;;;;;5012372;28;20260;-68
2022/09/02 10:16:17;;;;;;;;;;;22.50;99.90;;;;;;5012038;28;19922;-68
2022/09/02 10:18:52;;;;;;;;;;;22.50;99.90;;;;;;5011945;28;19921;-69
2022/09/02 10:21:25;;;;;;;;;;;22.60;99.90;;;;;;5026959;28;19932;-68
2022/09/02 10:23:52;;;;;;;;;;;22.60;99.90;;;;;;5027436;28;19921;-69
2022/09/02 10:26:28;;;;;;;;;;;22.60;99.90;;;;;;5012351;28;19926;-69
2022/09/02 10:28:58;;;;;;;;;;;22.60;99.90;;;;;;5027267;28;19929;-68
2022/09/02 10:31:29;;;;;;;;;;;22.70;99.90;;;;;;5012125;28;19967;-68
2022/09/02 10:34:09;;;;;;;;;;;22.60;99.90;;;;;;5011658;28;19925;-68
2022/09/02 10:36:45;;;;;;;;;;;22.60;99.90;;;;;;5026774;28;19921;-68
2022/09/02 10:39:21;;;;;;;;;;;22.70;99.90;;;;;;5011896;28;19925;-68
2022/09/02 10:41:48;;;;;;;;;;;22.80;99.90;;;;;;5011840;28;19929;-68
2022/09/02 10:44:32;;;;;;;;;;;22.90;99.90;;;;;;5027402;28;20377;-68
2022/09/02 10:47:08;;;;;;;;;;;22.90;99.90;;;;;;5026773;28;19921;-69
2022/09/02 10:49:44;;;;;;;;;;;23.10;99.90;;;;;;5026832;28;19928;-67
2022/09/02 10:52:23;;;;;;;;;;;23.20;99.90;;;;;;5011393;28;20308;-69
2022/09/02 10:55:02;;;;;;;;;;;23.30;99.90;;;;;;5037930;28;20291;-69
2022/09/02 10:57:30;;;;;;;;;;;23.30;99.90;;;;;;5030936;28;19929;-68
2022/09/02 11:00:00;;;;;;;;;;;23.40;99.90;;;;;;5011782;28;19925;-69
2022/09/02 11:02:31;;;;;;;;;;;23.40;99.90;;;;;;5011295;28;19931;-68
2022/09/02 11:04:59;;;;;;;;;;;23.40;99.90;;;;;;5028091;28;19921;-68
2022/09/02 11:07:27;;;;;;;;;;;23.50;99.90;;;;;;5043962;28;19922;-69
2022/09/02 11:09:55;;;;;;;;;;;23.50;99.90;;;;;;5010703;28;19921;-68
2022/09/02 11:12:22;;;;;;;;;;;23.60;99.90;;;;;;5011649;28;19921;-68
2022/09/02 11:15:03;;;;;;;;;;;23.60;99.90;;;;;;5026762;28;20364;-68
2022/09/02 11:17:34;;;;;;;;;;;23.40;99.90;;;;;;5031536;28;19928;-68
2022/09/02 11:20:20;;;;;;;;;;;23.40;99.90;;;;;;5031453;28;19929;-69
2022/09/02 11:23:02;;;;;;;;;;;23.50;99.90;;;;;;5033811;28;20403;-68
2022/09/02 11:25:32;;;;;;;;;;;23.50;99.90;;;;;;5034743;28;19943;-68
2022/09/02 11:28:17;;;;;;;;;;;23.60;99.90;;;;;;5030234;28;19971;-66
2022/09/02 11:30:44;;;;;;;;;;;23.70;99.90;;;;;;5015179;28;19922;-68
2022/09/02 11:33:18;;;;;;;;;;;23.80;99.90;;;;;;5014949;28;19936;-69
2022/09/02 11:35:45;;;;;;;;;;;23.90;99.90;;;;;;5014984;28;19928;-68
2022/09/02 11:38:28;;;;;;;;;;;24.00;99.90;;;;;;5029836;28;20386;-68
2022/09/02 11:41:14;;;;;;;;;;;24.00;99.90;;;;;;5030201;28;19921;-68
2022/09/02 11:44:19;;;;;;;;;;;24.00;99.90;;;;;;5014578;28;19925;-69
2022/09/02 11:46:48;;;;;;;;;;;24.00;99.90;;;;;;5014903;28;20435;-67
2022/09/02 11:49:20;;;;;;;;;;;24.10;99.90;;;;;;5013484;28;20003;-66
2022/09/02 11:51:46;;;;;;;;;;;24.20;99.90;;;;;;5029736;28;19929;-67
2022/09/02 11:54:14;;;;;;;;;;;24.30;99.90;;;;;;5020307;28;19921;-68
2022/09/02 11:56:45;;;;;;;;;;;24.40;99.90;;;;;;5066343;28;19924;-69
2022/09/02 11:59:19;;;;;;;;;;;24.50;99.90;;;;;;5019801;28;19925;-68
2022/09/02 12:01:49;;;;;;;;;;;24.70;99.90;;;;;;5014471;28;20012;-68
2022/09/02 12:04:17;;;;;;;;;;;24.80;99.90;;;;;;5015909;28;19925;-68
2022/09/02 12:07:04;;;;;;;;;;;24.90;99.90;;;;;;5026517;28;19921;-64
2022/09/02 12:09:40;;;;;;;;;;;24.90;99.90;;;;;;5014434;28;20321;-69
2022/09/02 12:12:09;;;;;;;;;;;25.00;99.90;;;;;;5014290;28;19921;-68
2022/09/02 12:14:42;;;;;;;;;;;25.00;99.90;;;;;;5012991;28;19929;-68
2022/09/02 12:17:10;;;;;;;;;;;25.10;99.90;;;;;;5013718;28;19921;-66
2022/09/02 12:19:39;;;;;;;;;;;25.00;99.90;;;;;;5014546;28;20331;-69
2022/09/02 12:22:11;;;;;;;;;;;25.00;99.90;;;;;;5014296;28;19921;-69
2022/09/02 12:24:54;;;;;;;;;;;25.00;99.90;;;;;;5014217;28;19921;-69
2022/09/02 12:27:36;;;;;;;;;;;25.00;99.90;;;;;;5013888;28;19928;-68
2022/09/02 12:30:05;;;;;;;;;;;25.00;99.90;;;;;;5009522;28;20364;-68
2022/09/02 12:32:44;;;;;;;;;;;25.00;99.90;;;;;;5009997;28;19929;-68
2022/09/02 12:35:12;;;;;;;;;;;25.00;99.90;;;;;;5013662;28;20393;-68
2022/09/02 12:37:49;;;;;;;;;;;24.80;99.90;;;;;;5013953;28;19921;-68
2022/09/02 12:40:22;;;;;;;;;;;24.80;99.90;;;;;;5013140;28;20002;-68
2022/09/02 12:42:49;;;;;;;;;;;24.80;99.90;;;;;;5013689;28;19928;-68
2022/09/02 12:45:23;;;;;;;;;;;24.90;99.90;;;;;;5012490;28;19925;-69
2022/09/02 12:48:10;;;;;;;;;;;24.90;99.90;;;;;;5012786;28;19925;-68
2022/09/02 12:50:43;;;;;;;;;;;24.90;99.90;;;;;;5013557;28;19932;-68
2022/09/02 12:53:30;;;;;;;;;;;24.70;99.90;;;;;;5013843;28;19922;-68
2022/09/02 12:56:03;;;;;;;;;;;24.70;99.90;;;;;;5013597;28;19936;-69
2022/09/02 12:58:32;;;;;;;;;;;24.70;99.90;;;;;;5013224;28;19921;-68
2022/09/02 13:01:05;;;;;;;;;;;24.70;99.90;;;;;;5013950;28;19928;-68
2022/09/02 13:03:44;;;;;;;;;;;24.80;99.90;;;;;;5028519;28;19928;-69
2022/09/02 13:06:17;;;;;;;;;;;24.90;99.90;;;;;;5013417;28;19921;-68
2022/09/02 13:08:47;;;;;;;;;;;24.90;99.90;;;;;;5021312;28;19921;-68
2022/09/02 13:11:13;;;;;;;;;;;24.80;99.90;;;;;;5013340;28;19922;-68
2022/09/02 13:13:52;;;;;;;;;;;24.80;99.90;;;;;;5013142;28;19921;-68
2022/09/02 13:16:22;;;;;;;;;;;24.80;99.90;;;;;;5013331;28;19925;-69
2022/09/02 13:19:07;;;;;;;;;;;24.80;99.90;;;;;;5013355;28;19971;-68
2022/09/02 13:21:40;;;;;;;;;;;24.80;99.90;;;;;;5013130;28;19921;-68
2022/09/02 13:24:22;;;;;;;;;;;24.80;99.90;;;;;;5013172;28;19997;-67
2022/09/02 13:26:53;;;;;;;;;;;24.80;99.90;;;;;;5012776;28;19925;-68
2022/09/02 13:29:38;;;;;;;;;;;24.80;99.90;;;;;;5013192;28;19932;-68
2022/09/02 13:32:08;;;;;;;;;;;24.90;99.90;;;;;;5012991;28;19922;-69
2022/09/02 13:34:44;;;;;;;;;;;25.00;99.90;;;;;;5012614;28;19928;-69
2022/09/02 13:37:31;;;;;;;;;;;25.00;99.90;;;;;;5011459;28;19921;-68
2022/09/02 13:39:58;;;;;;;;;;;24.90;99.90;;;;;;5012712;28;19960;-69
2022/09/02 13:42:26;;;;;;;;;;;24.80;99.90;;;;;;5027574;28;19925;-69
2022/09/02 13:45:12;;;;;;;;;;;24.80;99.90;;;;;;5012316;28;19921;-68
2022/09/02 13:47:42;;;;;;;;;;;24.70;99.90;;;;;;5012243;28;19921;-69
2022/09/02 13:50:10;;;;;;;;;;;24.70;99.90;;;;;;5011168;28;19921;-69
2022/09/02 13:52:37;;;;;;;;;;;24.60;99.90;;;;;;5027416;28;20400;-69
2022/09/02 13:55:24;;;;;;;;;;;24.60;99.90;;;;;;5022469;28;19921;-68
2022/09/02 13:58:06;;;;;;;;;;;24.50;99.90;;;;;;5028818;28;20015;-68
2022/09/02 14:00:33;;;;;;;;;;;24.50;99.90;;;;;;5027562;28;19928;-66
2022/09/02 14:03:04;;;;;;;;;;;24.50;99.90;;;;;;5011732;28;19921;-68
2022/09/02 14:05:32;;;;;;;;;;;24.40;99.90;;;;;;5018465;28;19921;-66
2022/09/02 14:07:59;;;;;;;;;;;24.40;99.90;;;;;;5030914;28;19921;-69
2022/09/02 14:10:26;;;;;;;;;;;24.30;99.90;;;;;;5032015;28;19994;-66
2022/09/02 14:12:56;;;;;;;;;;;24.30;99.90;;;;;;5014348;28;20427;-67
2022/09/02 14:15:27;;;;;;;;;;;24.20;99.90;;;;;;5030447;28;19928;-69
2022/09/02 14:18:06;;;;;;;;;;;24.20;99.90;;;;;;5031541;28;19921;-69
2022/09/02 14:20:33;;;;;;;;;;;24.10;99.90;;;;;;5031829;28;20030;-66
2022/09/02 14:23:00;;;;;;;;;;;24.00;99.90;;;;;;5031698;28;19975;-67
2022/09/02 14:25:37;;;;;;;;;;;23.90;99.90;;;;;;5031491;28;20394;-69
2022/09/02 14:28:08;;;;;;;;;;;23.90;99.90;;;;;;5013549;28;19922;-66
2022/09/02 14:30:35;;;;;;;;;;;23.90;99.90;;;;;;5019016;28;20297;-69
2022/09/02 14:33:15;;;;;;;;;;;23.90;99.90;;;;;;5011996;28;20313;-69